Time;durP1;ratioP1;P1;durP2;ratioP2;P2;SDS_P1;SDS_P2;PMS_P1;PMS_P2;Temp;Humidity;BMP_temperature;BMP_pressure;BME280_temperature;BME280_humidity;BME280_pressure;Samples;Min_cycle;Max_cycle;Signal;HPM_P1;HPM_P2
2022/08/23 00:01:43;;;;;;;4.00;3.03;;;18.50;99.90;;;;;;5104489;28;20031;-85
2022/08/23 00:04:12;;;;;;;6.15;3.03;;;18.50;99.90;;;;;;5111524;28;20389;-84
2022/08/23 00:06:40;;;;;;;3.53;2.78;;;18.40;99.90;;;;;;5106066;28;20043;-84
2022/08/23 00:09:06;;;;;;;4.47;2.50;;;18.30;99.90;;;;;;5100294;28;20103;-84
2022/08/23 00:11:45;;;;;;;5.30;2.65;;;18.30;99.90;;;;;;5108604;28;20468;-85
2022/08/23 00:14:23;;;;;;;5.45;2.50;;;18.20;99.90;;;;;;5102307;28;20375;-87
2022/08/23 00:16:49;;;;;;;10.13;2.80;;;18.20;99.90;;;;;;5109116;28;20229;-83
2022/08/23 00:19:17;;;;;;;5.68;3.38;;;18.20;99.90;;;;;;5101060;28;20111;-84
2022/08/23 00:21:43;;;;;;;3.78;2.92;;;18.10;99.90;;;;;;5110104;28;20043;-86
2022/08/23 00:24:11;;;;;;;6.55;3.65;;;18.00;99.90;;;;;;5108299;28;20656;-86
2022/08/23 00:27:06;;;;;;;4.22;3.15;;;18.10;99.90;;;;;;5099772;28;20024;-85
2022/08/23 00:29:42;;;;;;;7.88;3.60;;;18.00;99.90;;;;;;5100789;28;20039;-86
2022/08/23 00:32:17;;;;;;;3.35;3.05;;;18.00;99.90;;;;;;5106430;28;20201;-87
2022/08/23 00:34:43;;;;;;;5.80;3.80;;;17.90;99.90;;;;;;5111031;28;20040;-86
2022/08/23 00:37:09;;;;;;;4.85;2.75;;;17.90;99.90;;;;;;5106456;28;20027;-85
2022/08/23 00:39:36;;;;;;;3.47;2.97;;;17.80;99.90;;;;;;5103037;28;20080;-87
2022/08/23 00:47:38;;;;;;;3.42;2.88;;;17.80;99.90;;;;;;5110994;28;20039;-86
2022/08/23 00:47:42;;;;;;;4.93;2.85;;;17.80;99.90;;;;;;5105166;28;20053;-88
2022/08/23 00:50:32;;;;;;;6.30;3.50;;;17.70;99.90;;;;;;5102301;28;20538;-86
2022/08/23 00:53:16;;;;;;;5.43;2.88;;;17.70;99.90;;;;;;5107962;28;20501;-85
2022/08/23 00:55:45;;;;;;;3.85;2.80;;;17.70;99.90;;;;;;5097036;28;20077;-88
2022/08/23 00:58:15;;;;;;;6.75;4.72;;;17.70;99.90;;;;;;5102411;28;21344;-85
2022/08/23 01:00:40;;;;;;;4.53;3.47;;;17.60;99.90;;;;;;5115045;27;20020;-84
2022/08/23 01:03:09;;;;;;;5.90;3.25;;;17.60;99.90;;;;;;5102315;28;20406;-87
2022/08/23 01:06:05;;;;;;;8.02;3.80;;;17.60;99.90;;;;;;5108923;28;20496;-84
2022/08/23 01:08:32;;;;;;;4.38;3.15;;;17.60;99.90;;;;;;5107169;28;20016;-86
2022/08/23 01:11:24;;;;;;;4.85;3.47;;;17.50;99.90;;;;;;5102784;28;20016;-87
2022/08/23 01:14:03;;;;;;;3.88;2.95;;;17.50;99.90;;;;;;5103578;27;20433;-88
2022/08/23 01:16:35;;;;;;;3.78;3.35;;;17.50;99.90;;;;;;5103943;28;20032;-85
2022/08/23 01:19:06;;;;;;;5.47;2.92;;;17.40;99.90;;;;;;5104082;28;20062;-87
2022/08/23 01:21:39;;;;;;;4.45;3.15;;;17.40;99.90;;;;;;5104373;28;20122;-86
2022/08/23 01:24:04;;;;;;;;;;;17.40;99.90;;;;;;5105960;28;20028;-85
2022/08/23 01:26:33;;;;;;;6.05;3.28;;;17.40;99.90;;;;;;5100109;28;20372;-86
2022/08/23 01:29:00;;;;;;;4.47;3.40;;;17.30;99.90;;;;;;5103085;28;20162;-86
2022/08/23 01:31:27;;;;;;;6.88;3.30;;;17.30;99.90;;;;;;5103729;27;20074;-86
2022/08/23 01:33:57;;;;;;;7.13;3.63;;;17.30;99.90;;;;;;5119124;27;20036;-87
2022/08/23 01:36:23;;;;;;;5.88;3.28;;;17.30;99.90;;;;;;5099654;27;20028;-86
2022/08/23 01:38:49;;;;;;;5.57;2.97;;;17.30;99.90;;;;;;5108040;28;20385;-87
2022/08/23 01:41:15;;;;;;;7.93;3.45;;;17.20;99.90;;;;;;5100875;28;20016;-85
2022/08/23 01:43:40;;;;;;;4.40;2.95;;;17.30;99.90;;;;;;5108619;28;20030;-87
2022/08/23 01:46:09;;;;;;;7.53;3.80;;;17.20;99.90;;;;;;5096028;28;20035;-86
2022/08/23 01:48:34;;;;;;;6.93;3.60;;;17.20;99.90;;;;;;5108724;28;20035;-85
2022/08/23 01:51:00;;;;;;;9.40;3.65;;;17.20;99.90;;;;;;5108502;28;20031;-86
2022/08/23 01:53:25;;;;;;;4.70;3.60;;;17.20;99.90;;;;;;5105418;28;20031;-85
2022/08/23 01:55:51;;;;;;;8.90;3.20;;;17.10;99.90;;;;;;5103130;28;20028;-85
2022/08/23 01:58:16;;;;;;;4.47;3.40;;;17.10;99.90;;;;;;5101692;28;20039;-87
2022/08/23 02:00:43;;;;;;;4.15;3.28;;;17.10;99.90;;;;;;5093342;28;20758;-86
2022/08/23 02:03:11;;;;;;;4.90;3.38;;;17.10;99.90;;;;;;5102402;28;20057;-83
2022/08/23 02:05:37;;;;;;;6.95;3.85;;;17.00;99.90;;;;;;5108172;28;20034;-83
2022/08/23 02:10:49;;;;;;;3.50;3.20;;;17.00;99.90;;;;;;5097828;28;20031;-87
2022/08/23 02:13:16;;;;;;;7.38;3.63;;;16.90;99.90;;;;;;5107409;28;20032;-86
2022/08/23 02:15:43;;;;;;;5.53;3.85;;;16.90;99.90;;;;;;5100569;28;20410;-86
2022/08/23 02:18:10;;;;;;;5.28;3.80;;;16.90;99.90;;;;;;5107035;28;20036;-84
2022/08/23 02:20:36;;;;;;;5.57;3.40;;;16.80;99.90;;;;;;5115236;28;20094;-84
2022/08/23 02:23:02;;;;;;;5.82;3.75;;;16.80;99.90;;;;;;5113457;28;20043;-85
2022/08/23 02:25:28;;;;;;;4.20;3.53;;;16.80;99.90;;;;;;5108971;28;20036;-85
2022/08/23 02:27:53;;;;;;;6.63;3.47;;;16.80;99.90;;;;;;5116096;28;20032;-86
2022/08/23 02:30:19;;;;;;;6.00;3.67;;;16.80;99.90;;;;;;5128004;28;20036;-87
2022/08/23 02:32:44;;;;;;;9.20;3.80;;;16.80;99.90;;;;;;5128041;28;20120;-86
2022/08/23 02:35:10;;;;;;;4.25;3.47;;;16.70;99.90;;;;;;5123444;28;20084;-86
2022/08/23 02:37:35;;;;;;;4.68;3.78;;;16.70;99.90;;;;;;5118839;28;20031;-85
2022/08/23 02:40:02;;;;;;;6.80;3.95;;;16.70;99.90;;;;;;5135451;28;20035;-84
2022/08/23 02:42:28;;;;;;;7.18;3.92;;;16.70;99.90;;;;;;5113369;28;20042;-85
2022/08/23 02:44:54;;;;;;;3.90;3.50;;;16.70;99.90;;;;;;5108107;28;20019;-83
2022/08/23 02:47:19;;;;;;;7.18;4.50;;;16.70;99.90;;;;;;5110520;28;20015;-86
2022/08/23 02:49:45;;;;;;;6.28;3.83;;;16.70;99.90;;;;;;5110046;27;20055;-85
2022/08/23 02:52:11;;;;;;;4.45;3.85;;;16.60;99.90;;;;;;5114646;28;20427;-86
2022/08/23 02:54:36;;;;;;;8.50;3.97;;;16.60;99.90;;;;;;5114872;27;20031;-84
2022/08/23 02:57:02;;;;;;;7.55;4.20;;;16.60;99.90;;;;;;5103722;28;20088;-84
2022/08/23 02:59:28;;;;;;;6.53;4.00;;;16.60;99.90;;;;;;5114671;28;20032;-83
2022/08/23 03:01:53;;;;;;;5.57;4.03;;;16.60;99.90;;;;;;5115347;27;20062;-83
2022/08/23 03:04:19;;;;;;;5.50;3.42;;;16.60;99.90;;;;;;5113533;28;20080;-83
2022/08/23 03:06:44;;;;;;;5.07;3.97;;;16.50;99.90;;;;;;5114059;28;20150;-85
2022/08/23 03:09:10;;;;;;;6.53;3.40;;;16.50;99.90;;;;;;5119263;28;20031;-84
2022/08/23 03:11:35;;;;;;;6.10;3.80;;;16.50;99.90;;;;;;5109189;28;20433;-82
2022/08/23 03:14:01;;;;;;;4.75;4.18;;;16.50;99.90;;;;;;5124938;28;20034;-85
2022/08/23 03:16:27;;;;;;;5.65;3.85;;;16.50;99.90;;;;;;5122075;28;20039;-82
2022/08/23 03:18:54;;;;;;;7.07;3.88;;;16.50;99.90;;;;;;5131292;27;20068;-81
2022/08/23 03:21:19;;;;;;;6.78;4.30;;;16.50;99.90;;;;;;5128286;28;20027;-84
2022/08/23 03:23:45;;;;;;;6.18;4.40;;;16.50;99.90;;;;;;5126575;28;20080;-84
2022/08/23 03:26:13;;;;;;;5.45;3.92;;;16.50;99.90;;;;;;5114828;28;20032;-84
2022/08/23 03:28:41;;;;;;;8.48;4.57;;;16.50;99.90;;;;;;5119011;28;20087;-83
2022/08/23 03:31:08;;;;;;;5.90;4.10;;;16.50;99.90;;;;;;5118369;28;20043;-86
2022/08/23 03:33:34;;;;;;;4.93;4.03;;;16.50;99.90;;;;;;5114434;28;20035;-86
2022/08/23 03:36:02;;;;;;;4.57;3.90;;;16.50;99.90;;;;;;5102091;27;20474;-87
2022/08/23 03:38:28;;;;;;;7.18;4.40;;;16.40;99.90;;;;;;5110883;28;20038;-88
2022/08/23 03:40:54;;;;;;;6.40;3.88;;;16.50;99.90;;;;;;5111102;28;20020;-85
2022/08/23 03:43:20;;;;;;;4.53;4.03;;;16.40;99.90;;;;;;5113066;28;20092;-85
2022/08/23 03:45:45;;;;;;;8.40;5.05;;;16.40;99.90;;;;;;5113829;28;20035;-87
2022/08/23 03:48:10;;;;;;;11.18;5.30;;;16.40;99.90;;;;;;5116282;28;20493;-86
2022/08/23 03:50:36;;;;;;;6.82;4.63;;;16.40;99.90;;;;;;5111908;28;20028;-86
2022/08/23 03:53:03;;;;;;;6.53;4.60;;;16.40;99.90;;;;;;5127574;27;20384;-85
2022/08/23 03:55:28;;;;;;;4.18;3.78;;;16.40;99.90;;;;;;5114650;27;20031;-85
2022/08/23 03:57:54;;;;;;;5.32;4.32;;;16.30;99.90;;;;;;5113191;28;20374;-84
2022/08/23 04:00:19;;;;;;;7.60;4.15;;;16.30;99.90;;;;;;5114215;28;20046;-84
2022/08/23 04:02:45;;;;;;;4.38;3.97;;;16.30;99.90;;;;;;5120228;27;20031;-84
2022/08/23 04:05:11;;;;;;;6.30;4.40;;;16.40;99.90;;;;;;5108530;27;20039;-84
2022/08/23 04:07:37;;;;;;;8.75;4.93;;;16.30;99.90;;;;;;5104943;28;20028;-84
2022/08/23 04:10:05;;;;;;;6.45;4.88;;;16.40;99.90;;;;;;5109277;27;20024;-83
2022/08/23 04:12:30;;;;;;;5.47;4.20;;;16.40;99.90;;;;;;5110980;28;20028;-84
2022/08/23 04:14:56;;;;;;;7.30;4.45;;;16.40;99.90;;;;;;5115606;28;20556;-85
2022/08/23 04:17:22;;;;;;;4.93;4.25;;;16.50;99.90;;;;;;5112758;28;20077;-84
2022/08/23 04:19:48;;;;;;;6.68;4.32;;;16.50;99.90;;;;;;5111089;28;20031;-87
2022/08/23 04:22:16;;;;;;;5.32;4.70;;;16.50;99.90;;;;;;5112581;27;20636;-86
2022/08/23 04:24:43;;;;;;;4.75;3.75;;;16.60;99.90;;;;;;5107535;28;20047;-88
2022/08/23 04:27:09;;;;;;;8.25;4.93;;;16.60;99.90;;;;;;5112561;28;20076;-86
2022/08/23 04:29:35;;;;;;;4.28;3.90;;;16.60;99.90;;;;;;5104581;27;20074;-85
2022/08/23 04:32:02;;;;;;;6.63;4.63;;;16.70;99.90;;;;;;5115563;27;20023;-85
2022/08/23 04:34:27;;;;;;;7.38;4.00;;;16.80;99.90;;;;;;5106031;28;20028;-86
2022/08/23 04:36:53;;;;;;;6.82;4.47;;;16.80;99.90;;;;;;5098147;28;20371;-87
2022/08/23 04:39:19;;;;;;;7.10;4.68;;;16.90;99.90;;;;;;5102662;28;20704;-87
2022/08/23 04:44:28;;;;;;;5.30;3.80;;;17.00;99.90;;;;;;5111545;27;20039;-87
2022/08/23 04:46:54;;;;;;;4.25;3.85;;;17.00;99.90;;;;;;5104646;28;20031;-84
2022/08/23 04:49:22;;;;;;;5.10;3.50;;;17.10;99.90;;;;;;5112007;28;20056;-85
2022/08/23 04:51:48;;;;;;;6.65;3.72;;;17.20;99.90;;;;;;5104439;28;20028;-86
2022/08/23 04:54:13;;;;;;;4.03;3.50;;;17.20;99.90;;;;;;5106302;28;20470;-87
2022/08/23 04:56:40;;;;;;;4.63;3.70;;;17.20;99.90;;;;;;5105850;28;20068;-85
2022/08/23 04:59:06;;;;;;;5.20;3.55;;;17.30;99.90;;;;;;5115500;27;20061;-86
2022/08/23 05:01:33;;;;;;;4.93;3.50;;;17.40;99.90;;;;;;5104000;28;20101;-86
2022/08/23 05:04:00;;;;;;;6.07;3.70;;;17.40;99.90;;;;;;5095721;28;20121;-86
2022/08/23 05:06:27;;;;;;;7.40;3.70;;;17.50;99.90;;;;;;5096761;28;20562;-86
2022/08/23 05:08:53;;;;;;;5.03;4.05;;;17.50;99.90;;;;;;5102811;28;20571;-87
2022/08/23 05:11:20;;;;;;;6.80;3.60;;;17.60;99.90;;;;;;5106495;28;20030;-87
2022/08/23 05:13:45;;;;;;;4.82;3.85;;;17.70;99.90;;;;;;5105839;28;20066;-86
2022/08/23 05:16:12;;;;;;;5.63;3.55;;;17.80;99.90;;;;;;5098606;28;20028;-87
2022/08/23 05:18:38;;;;;;;5.38;3.88;;;17.80;99.90;;;;;;5108694;28;20472;-85
2022/08/23 05:21:05;;;;;;;5.03;3.92;;;17.90;99.90;;;;;;5110990;28;20081;-88
2022/08/23 05:23:31;;;;;;;5.38;3.97;;;17.90;99.90;;;;;;5108927;28;20114;-90
2022/08/23 05:25:57;;;;;;;4.45;3.33;;;18.00;99.90;;;;;;5106781;27;20057;-89
2022/08/23 05:28:26;;;;;;;4.57;2.92;;;18.10;99.90;;;;;;5098253;28;20055;-85
2022/08/23 05:30:59;;;;;;;5.68;3.55;;;18.10;99.90;;;;;;5120190;27;20111;-84
2022/08/23 05:33:25;;;;;;;5.22;3.60;;;18.20;99.90;;;;;;5107484;28;20089;-86
2022/08/23 05:35:51;;;;;;;5.63;3.70;;;18.30;99.90;;;;;;5098557;28;20040;-90
2022/08/23 05:38:17;;;;;;;4.53;3.83;;;18.40;99.90;;;;;;5100148;28;20038;-86
2022/08/23 05:40:42;;;;;;;6.28;3.63;;;18.40;99.90;;;;;;5112392;28;20035;-85
2022/08/23 05:43:08;;;;;;;12.40;4.03;;;18.50;99.90;;;;;;5099600;28;20056;-87
2022/08/23 05:45:34;;;;;;;10.95;3.35;;;18.50;99.90;;;;;;5110108;28;20028;-87
2022/08/23 05:47:59;;;;;;;6.45;3.63;;;18.60;99.90;;;;;;5107534;28;20438;-80
2022/08/23 05:50:25;;;;;;;5.40;3.08;;;18.70;99.90;;;;;;5092869;28;20024;-87
2022/08/23 05:52:50;;;;;;;5.07;3.53;;;18.80;99.90;;;;;;5112608;27;20154;-86
2022/08/23 05:55:16;;;;;;;4.85;3.38;;;18.90;99.90;;;;;;5103384;28;20066;-88
2022/08/23 05:57:41;;;;;;;6.88;3.63;;;18.90;99.90;;;;;;5094448;28;20037;-89
2022/08/23 06:00:14;;;;;;;4.32;2.90;;;19.00;99.90;;;;;;5094187;28;20028;-86
2022/08/23 06:02:40;;;;;;;4.47;3.65;;;19.10;99.90;;;;;;5091999;28;20024;-85
2022/08/23 06:05:06;;;;;;;4.38;2.80;;;19.10;99.90;;;;;;5103881;28;20553;-85
2022/08/23 06:07:36;;;;;;;4.00;2.67;;;19.20;99.90;;;;;;5115521;28;20023;-89
2022/08/23 06:10:03;;;;;;;5.13;3.03;;;19.30;99.90;;;;;;5114316;28;20633;-85
2022/08/23 06:12:30;;;;;;;4.25;2.40;;;19.40;99.90;;;;;;5113544;28;20456;-88
2022/08/23 06:14:56;;;;;;;8.25;3.22;;;19.40;99.90;;;;;;5119284;28;20016;-89
2022/08/23 06:17:22;;;;;;;2.95;2.38;;;19.50;99.90;;;;;;5123256;28;20393;-86
2022/08/23 06:19:47;;;;;;;5.22;2.83;;;19.60;99.90;;;;;;5114585;28;20038;-88
2022/08/23 06:22:13;;;;;;;5.13;2.63;;;19.60;99.90;;;;;;5122867;28;20043;-86
2022/08/23 06:24:38;;;;;;;4.30;2.42;;;19.70;99.90;;;;;;5119122;28;20032;-86
2022/08/23 06:27:04;;;;;;;4.38;2.97;;;19.70;99.90;;;;;;5111581;28;20035;-90
2022/08/23 06:29:30;;;;;;;5.60;2.90;;;19.80;99.90;;;;;;5112750;28;20038;-89
2022/08/23 06:31:56;;;;;;;5.28;2.95;;;19.90;99.90;;;;;;5127219;28;20047;-86
2022/08/23 06:34:31;;;;;;;7.63;3.15;;;20.00;99.90;;;;;;5106586;28;20040;-87
2022/08/23 06:37:03;;;;;;;4.25;2.63;;;20.00;99.90;;;;;;5109924;28;20122;-88
2022/08/23 06:39:30;;;;;;;;;;;20.10;99.90;;;;;;5112048;28;20036;-87
2022/08/23 06:42:00;;;;;;;4.70;3.08;;;20.10;99.70;;;;;;5113681;28;19907;-87
2022/08/23 06:44:27;;;;;;;6.28;2.90;;;20.20;99.90;;;;;;5113838;28;20024;-90
2022/08/23 06:46:55;;;;;;;5.07;3.10;;;20.30;99.90;;;;;;5114372;28;20036;-85
2022/08/23 06:49:21;;;;;;;4.78;2.97;;;20.30;99.90;;;;;;5131628;28;20008;-87
2022/08/23 06:51:51;;;;;;;6.97;2.78;;;20.40;99.90;;;;;;5132048;28;20058;-87
2022/08/23 06:54:20;;;;;;;6.78;2.92;;;20.40;99.70;;;;;;5121856;28;20043;-84
2022/08/23 06:56:47;;;;;;;4.35;2.35;;;20.50;99.60;;;;;;5115765;28;20016;-83
2022/08/23 06:59:12;;;;;;;5.05;2.75;;;20.60;99.80;;;;;;5116487;28;20082;-89
2022/08/23 07:01:55;;;;;;;9.40;2.72;;;20.70;99.70;;;;;;5127512;28;20035;-87
2022/08/23 07:04:28;;;;;;;2.45;1.80;;;20.70;99.20;;;;;;5111057;28;20019;-86
2022/08/23 07:06:54;;;;;;;7.53;2.13;;;20.80;99.30;;;;;;5109985;28;20032;-93
2022/08/23 07:09:20;;;;;;;4.80;2.97;;;20.90;99.60;;;;;;5108833;28;20032;-89
2022/08/23 07:11:45;;;;;;;7.65;2.20;;;21.00;99.10;;;;;;5109190;28;20031;-86
2022/08/23 07:14:16;;;;;;;4.32;1.80;;;21.00;99.00;;;;;;5107875;28;20048;-86
2022/08/23 07:16:48;;;;;;;5.22;2.10;;;21.10;99.10;;;;;;5109289;28;20110;-88
2022/08/23 07:19:16;;;;;;;3.13;2.08;;;21.20;99.00;;;;;;5110225;28;20094;-86
2022/08/23 07:21:42;;;;;;;2.95;1.85;;;21.20;98.80;;;;;;5109627;28;20048;-84
2022/08/23 07:24:08;;;;;;;3.25;1.92;;;21.20;98.70;;;;;;5109943;28;20059;-86
2022/08/23 07:26:35;;;;;;;3.03;1.92;;;21.20;98.80;;;;;;5111293;28;20047;-88
2022/08/23 07:29:05;;;;;;;4.00;1.98;;;21.20;98.60;;;;;;5103878;28;20031;-85
2022/08/23 07:31:33;;;;;;;1.55;1.40;;;21.30;98.60;;;;;;5095228;28;20505;-77
2022/08/23 07:34:04;;;;;;;2.55;1.77;;;21.40;98.70;;;;;;5115327;28;20032;-83
2022/08/23 07:36:32;;;;;;;8.27;1.67;;;21.40;98.40;;;;;;5113874;28;20023;-81
2022/08/23 07:38:57;;;;;;;4.55;2.35;;;21.50;98.50;;;;;;5112256;28;20034;-80
2022/08/23 07:41:28;;;;;;;3.35;2.13;;;21.60;98.60;;;;;;5112172;28;20023;-80
2022/08/23 07:43:54;;;;;;;6.05;2.20;;;21.70;98.10;;;;;;5112898;28;20077;-80
2022/08/23 07:46:20;;;;;;;4.75;2.28;;;21.80;98.30;;;;;;5112995;28;20023;-80
2022/08/23 07:48:45;;;;;;;5.78;2.85;;;21.80;98.10;;;;;;5102095;28;20042;-83
2022/08/23 07:51:13;;;;;;;6.88;2.60;;;21.90;98.00;;;;;;5108948;28;20027;-83
2022/08/23 07:53:39;;;;;;;3.08;2.00;;;21.90;98.00;;;;;;5111854;28;20420;-83
2022/08/23 07:56:08;;;;;;;7.38;2.25;;;21.90;98.10;;;;;;5111786;28;20027;-83
2022/08/23 07:58:33;;;;;;;4.43;2.35;;;22.00;98.00;;;;;;5106867;28;20020;-82
2022/08/23 08:01:15;;;;;;;7.53;2.47;;;22.00;97.80;;;;;;5091893;28;20028;-83
2022/08/23 08:03:46;;;;;;;5.00;2.03;;;22.00;97.80;;;;;;5092636;28;20039;-83
2022/08/23 08:06:17;;;;;;;2.83;1.95;;;22.00;97.80;;;;;;5111450;27;20051;-82
2022/08/23 08:08:43;;;;;;;4.72;2.47;;;22.00;97.70;;;;;;5109898;28;20070;-83
2022/08/23 08:11:10;;;;;;;4.18;2.10;;;22.10;97.90;;;;;;5110332;28;20454;-82
2022/08/23 08:13:41;;;;;;;4.07;2.28;;;22.20;98.00;;;;;;5112025;28;20024;-83
2022/08/23 08:16:07;;;;;;;4.38;2.05;;;22.30;97.50;;;;;;5112170;28;20031;-83
2022/08/23 08:18:35;;;;;;;3.95;1.80;;;22.40;97.20;;;;;;5110678;28;20031;-82
2022/08/23 08:21:00;;;;;;;5.05;2.13;;;22.50;96.80;;;;;;5111369;28;20032;-83
2022/08/23 08:23:28;;;;;;;8.98;2.45;;;22.50;97.00;;;;;;5112331;28;20034;-82
2022/08/23 08:26:06;;;;;;;2.58;1.80;;;22.50;96.70;;;;;;5110873;28;20027;-83
2022/08/23 08:28:32;;;;;;;4.40;2.10;;;22.60;96.40;;;;;;5098549;28;20122;-83
2022/08/23 08:30:58;;;;;;;6.43;1.92;;;22.70;96.40;;;;;;5119218;28;20020;-82
2022/08/23 08:33:27;;;;;;;4.75;2.05;;;22.80;96.20;;;;;;5126723;28;20039;-82
2022/08/23 08:35:52;;;;;;;9.45;2.28;;;22.90;95.60;;;;;;5119574;27;20130;-82
2022/08/23 08:38:18;;;;;;;2.90;1.67;;;22.90;95.00;;;;;;5113959;28;20112;-83
2022/08/23 08:40:44;;;;;;;2.67;1.25;;;22.90;95.10;;;;;;5110056;28;20027;-82
2022/08/23 08:43:24;;;;;;;2.15;1.20;;;23.00;95.30;;;;;;5103808;28;20023;-82
2022/08/23 08:46:03;;;;;;;4.47;1.08;;;23.10;94.90;;;;;;5111241;28;20020;-82
2022/08/23 08:48:41;;;;;;;2.50;1.13;;;23.20;94.70;;;;;;5111181;28;20098;-82
2022/08/23 08:51:30;;;;;;;5.25;1.67;;;23.30;94.60;;;;;;5104306;28;20024;-84
2022/08/23 08:53:58;;;;;;;3.55;1.30;;;23.30;94.50;;;;;;5111603;28;20024;-83
2022/08/23 08:56:28;;;;;;;3.60;1.60;;;23.40;94.80;;;;;;5109700;28;20397;-84
2022/08/23 08:58:59;;;;;;;4.30;1.48;;;23.40;95.20;;;;;;5109579;28;20382;-83
2022/08/23 09:01:27;;;;;;;3.80;1.95;;;23.50;94.50;;;;;;5110662;28;20110;-83
2022/08/23 09:03:56;;;;;;;4.35;1.50;;;23.60;94.80;;;;;;5110470;28;20040;-83
2022/08/23 09:06:29;;;;;;;4.63;1.73;;;23.60;94.10;;;;;;5110568;28;20064;-83
2022/08/23 09:09:14;;;;;;;5.13;1.45;;;23.60;94.30;;;;;;5110117;28;20037;-82
2022/08/23 09:12:04;;;;;;;3.50;1.23;;;23.60;94.30;;;;;;5109608;28;20079;-82
2022/08/23 09:15:00;;;;;;;2.40;0.90;;;23.40;94.20;;;;;;5110750;28;20032;-83
2022/08/23 09:17:53;;;;;;;2.78;1.25;;;23.40;94.30;;;;;;5110494;28;20381;-83
2022/08/23 09:20:21;;;;;;;3.03;1.40;;;23.30;94.30;;;;;;5110501;28;20465;-82
2022/08/23 09:22:52;;;;;;;2.58;1.33;;;23.40;94.50;;;;;;5110567;28;20039;-83
2022/08/23 09:25:18;;;;;;;2.30;1.02;;;23.40;94.50;;;;;;5110843;28;20024;-83
2022/08/23 09:27:44;;;;;;;2.72;1.20;;;23.40;94.10;;;;;;5110290;28;20167;-83
2022/08/23 09:30:16;;;;;;;3.40;1.20;;;23.50;94.70;;;;;;5110208;28;20033;-83
2022/08/23 09:32:44;;;;;;;3.42;1.55;;;23.60;94.30;;;;;;5109571;28;20040;-83
2022/08/23 09:35:16;;;;;;;3.83;1.30;;;23.70;93.60;;;;;;5092719;28;20468;-83
2022/08/23 09:38:00;;;;;;;7.60;1.50;;;23.80;94.00;;;;;;5089124;28;20024;-83
2022/08/23 09:40:36;;;;;;;3.08;1.30;;;23.90;94.20;;;;;;5089682;28;20031;-83
2022/08/23 09:43:15;;;;;;;3.38;1.48;;;23.90;93.70;;;;;;5096975;28;20031;-83
2022/08/23 09:45:51;;;;;;;4.00;1.38;;;24.00;93.70;;;;;;5109554;28;20196;-82
2022/08/23 09:48:42;;;;;;;3.40;1.40;;;23.80;93.90;;;;;;5107626;28;20124;-83
2022/08/23 09:51:18;;;;;;;3.20;1.85;;;23.80;93.90;;;;;;5109367;28;20081;-82
2022/08/23 09:54:02;;;;;;;3.42;1.23;;;23.80;94.60;;;;;;5100213;28;20378;-83
2022/08/23 09:56:38;;;;;;;3.80;1.40;;;23.90;94.10;;;;;;5087697;28;20394;-83
2022/08/23 09:59:24;;;;;;;3.72;1.75;;;24.10;93.90;;;;;;5088123;28;20028;-82
2022/08/23 10:01:51;;;;;;;1.95;1.15;;;24.10;93.50;;;;;;5088036;28;20050;-83
2022/08/23 10:04:53;;;;;;;4.75;1.50;;;24.10;94.00;;;;;;5106059;28;20030;-83
2022/08/23 10:07:23;;;;;;;2.67;1.17;;;24.20;93.90;;;;;;5107522;28;20573;-82
2022/08/23 10:09:49;;;;;;;4.97;1.73;;;24.50;93.70;;;;;;5109794;28;20028;-82
2022/08/23 10:12:15;;;;;;;3.92;1.30;;;24.70;93.30;;;;;;5107928;28;20540;-82
2022/08/23 10:14:41;;;;;;;6.78;2.08;;;24.90;93.30;;;;;;5099871;28;20031;-82
2022/08/23 10:17:32;;;;;;;3.30;1.42;;;25.20;93.40;;;;;;5098167;28;20032;-82
2022/08/23 10:20:24;;;;;;;2.55;1.35;;;25.20;92.30;;;;;;5100172;28;20028;-82
2022/08/23 10:23:22;;;;;;;5.93;1.98;;;25.30;92.70;;;;;;5101186;28;20043;-80
2022/08/23 10:25:55;;;;;;;5.82;1.80;;;25.60;92.70;;;;;;5116451;28;20035;-82
2022/08/23 10:31:56;;;;;;;3.05;1.30;;;26.00;92.40;;;;;;5098483;28;20028;-82
2022/08/23 10:34:41;;;;;;;4.03;1.23;;;26.30;92.30;;;;;;5106300;28;20032;-82
2022/08/23 10:37:09;;;;;;;3.53;1.38;;;26.70;91.30;;;;;;5108513;28;20058;-82
2022/08/23 10:39:44;;;;;;;8.13;1.30;;;27.00;90.70;;;;;;5110012;28;20028;-80
2022/08/23 10:42:32;;;;;;;2.20;0.90;;;27.20;87.80;;;;;;5110450;28;20085;-79
2022/08/23 10:45:19;;;;;;;2.95;0.95;;;27.00;84.70;;;;;;5111700;28;20124;-81
2022/08/23 10:48:09;;;;;;;4.50;1.10;;;26.90;86.90;;;;;;5090614;28;20079;-81
2022/08/23 10:50:47;;;;;;;5.03;2.60;;;26.60;87.00;;;;;;5107809;28;20035;-82
2022/08/23 10:53:17;;;;;;;29.65;19.13;;;26.40;87.70;;;;;;5109774;28;20036;-83
2022/08/23 10:56:05;;;;;;;58.33;51.67;;;26.30;88.00;;;;;;5104545;28;20044;-86
2022/08/23 10:58:42;;;;;;;76.07;65.35;;;26.10;88.50;;;;;;5090957;28;20024;-84
2022/08/23 11:01:12;;;;;;;85.50;76.82;;;26.00;90.10;;;;;;5095988;28;20552;-82
2022/08/23 11:03:48;;;;;;;7.22;5.68;;;25.70;90.10;;;;;;5113335;28;20035;-84
2022/08/23 11:06:38;;;;;;;7.47;6.50;;;25.40;90.60;;;;;;5105314;28;20104;-85
2022/08/23 11:09:16;;;;;;;2.03;1.20;;;25.40;91.30;;;;;;5093143;28;20043;-84
2022/08/23 11:11:47;;;;;;;3.40;1.40;;;25.40;91.40;;;;;;5109854;28;20077;-85
2022/08/23 11:14:40;;;;;;;1.83;1.03;;;25.30;91.20;;;;;;5110891;28;20093;-84
2022/08/23 11:17:10;;;;;;;2.35;0.95;;;25.20;91.10;;;;;;5109445;28;20344;-86
2022/08/23 11:19:52;;;;;;;2.03;0.85;;;25.20;90.90;;;;;;5111112;28;20362;-85
2022/08/23 11:22:24;;;;;;;3.00;1.00;;;25.20;91.10;;;;;;5111240;28;20050;-86
2022/08/23 11:24:54;;;;;;;2.40;1.02;;;25.20;91.10;;;;;;5111216;28;20028;-84
2022/08/23 11:27:41;;;;;;;3.60;1.15;;;25.20;91.10;;;;;;5108968;28;20474;-81
2022/08/23 11:30:35;;;;;;;2.30;1.00;;;25.30;91.50;;;;;;5110626;28;20039;-83
2022/08/23 11:33:14;;;;;;;3.13;1.15;;;25.60;90.20;;;;;;5102972;28;20104;-80
2022/08/23 11:35:47;;;;;;;3.83;1.58;;;25.90;90.50;;;;;;5110814;28;20047;-80
2022/08/23 11:38:14;;;;;;;2.03;1.00;;;26.30;88.40;;;;;;5100827;28;20028;-82
2022/08/23 11:40:48;;;;;;;2.00;1.13;;;26.50;89.70;;;;;;5106320;28;20015;-80
2022/08/23 11:43:36;;;;;;;2.10;0.90;;;26.80;87.20;;;;;;5102667;28;20036;-80
2022/08/23 11:46:13;;;;;;;3.72;1.42;;;27.00;86.80;;;;;;5090110;28;20036;-81
2022/08/23 11:48:41;;;;;;;1.60;0.90;;;27.20;85.80;;;;;;5096602;28;20084;-80
2022/08/23 11:51:35;;;;;;;3.40;0.80;;;27.40;88.60;;;;;;5092501;28;20028;-82
2022/08/23 11:54:25;;;;;;;3.75;1.00;;;27.70;85.40;;;;;;5101114;28;20032;-82
2022/08/23 11:57:04;;;;;;;4.13;0.98;;;27.80;85.80;;;;;;5089092;28;20131;-83
2022/08/23 12:00:10;;;;;;;3.08;1.00;;;28.00;83.80;;;;;;5105950;28;20047;-81
2022/08/23 12:03:08;;;;;;;4.00;0.70;;;28.00;81.60;;;;;;5110263;28;20024;-80
2022/08/23 12:05:37;;;;;;;2.50;0.85;;;28.20;80.90;;;;;;5107113;28;20470;-81
2022/08/23 12:08:03;;;;;;;1.38;0.75;;;28.20;81.90;;;;;;5108466;28;20027;-81
2022/08/23 12:10:40;;;;;;;4.15;1.23;;;28.40;83.00;;;;;;5109904;28;20089;-82
2022/08/23 12:13:28;;;;;;;2.35;0.82;;;28.60;79.90;;;;;;5110307;28;20031;-82
2022/08/23 12:16:27;;;;;;;1.88;0.70;;;28.70;79.00;;;;;;5109292;28;20424;-85
2022/08/23 12:18:56;;;;;;;2.67;0.95;;;28.50;80.70;;;;;;5108832;28;20036;-86
2022/08/23 12:21:24;;;;;;;2.35;1.23;;;28.30;81.20;;;;;;5088803;28;20524;-87
2022/08/23 12:23:56;;;;;;;1.90;0.73;;;28.00;82.20;;;;;;5091189;28;20040;-84
2022/08/23 12:26:29;;;;;;;2.55;0.95;;;27.80;83.20;;;;;;5109016;28;20062;-87
2022/08/23 12:29:08;;;;;;;2.97;1.00;;;27.60;83.50;;;;;;5110174;28;20115;-85
2022/08/23 12:31:42;;;;;;;4.65;1.30;;;27.40;82.90;;;;;;5109148;28;20462;-87
2022/08/23 12:34:24;;;;;;;3.63;1.20;;;27.30;83.70;;;;;;5109590;28;20044;-87
2022/08/23 12:37:07;;;;;;;2.50;1.13;;;27.10;82.90;;;;;;5109400;28;20047;-87
2022/08/23 12:39:57;;;;;;;2.53;1.02;;;27.00;84.00;;;;;;5111105;28;20031;-86
2022/08/23 12:42:32;;;;;;;2.17;0.90;;;26.70;84.30;;;;;;5093717;28;20178;-86
2022/08/23 12:45:17;;;;;;;2.90;0.70;;;26.60;85.40;;;;;;5088872;28;20036;-85
2022/08/23 12:47:56;;;;;;;4.55;1.10;;;26.50;84.70;;;;;;5089870;28;20024;-87
2022/08/23 12:50:39;;;;;;;3.25;0.82;;;26.40;85.00;;;;;;5090142;28;20050;-85
2022/08/23 12:53:24;;;;;;;1.95;1.00;;;26.10;85.60;;;;;;5096185;28;20019;-82
2022/08/23 12:55:50;;;;;;;1.90;0.90;;;26.30;86.50;;;;;;5108594;28;20058;-81
2022/08/23 12:58:26;;;;;;;2.17;0.80;;;26.50;84.60;;;;;;5109473;28;20465;-83
2022/08/23 13:00:58;;;;;;;2.53;0.88;;;26.90;83.40;;;;;;5105572;28;20149;-80
2022/08/23 13:03:31;;;;;;;2.10;0.90;;;27.30;83.50;;;;;;5103681;28;20088;-82
2022/08/23 13:06:01;;;;;;;3.60;0.70;;;27.80;83.50;;;;;;5109365;28;20283;-81
2022/08/23 13:08:53;;;;;;;3.78;0.75;;;28.30;83.60;;;;;;5110513;28;20019;-81
2022/08/23 13:11:21;;;;;;;2.22;0.70;;;28.80;79.90;;;;;;5105783;28;20043;-84
2022/08/23 13:13:47;;;;;;;2.47;0.80;;;29.10;79.30;;;;;;5102560;28;20036;-83
2022/08/23 13:16:42;;;;;;;3.10;0.70;;;29.10;77.30;;;;;;5088259;28;20036;-83
2022/08/23 13:19:34;;;;;;;2.45;0.70;;;29.20;77.70;;;;;;5107426;28;20036;-85
2022/08/23 13:22:18;;;;;;;2.17;0.90;;;29.10;76.80;;;;;;5104949;28;20047;-86